Time;durP1;ratioP1;P1;durP2;ratioP2;P2;SDS_P1;SDS_P2;PMS_P1;PMS_P2;Temp;Humidity;BMP_temperature;BMP_pressure;BME280_temperature;BME280_humidity;BME280_pressure;Samples;Min_cycle;Max_cycle;Signal;HPM_P1;HPM_P2
2021/12/13 00:02:39;;;;;;;10.95;7.82;;;7.60;99.90;;;;;;4962117;28;20034;-55
2021/12/13 00:05:07;;;;;;;11.40;8.40;;;7.60;99.90;;;;;;4965072;28;20022;-49
2021/12/13 00:07:37;;;;;;;17.63;8.45;;;7.60;99.90;;;;;;4966332;28;20081;-56
2021/12/13 00:10:23;;;;;;;20.85;9.73;;;7.60;99.90;;;;;;4967876;28;20054;-56
2021/12/13 00:12:57;;;;;;;16.65;8.68;;;7.60;99.90;;;;;;4972870;28;20444;-56
2021/12/13 00:15:33;;;;;;;17.05;9.32;;;7.60;99.90;;;;;;4972920;28;20050;-57
2021/12/13 00:18:02;;;;;;;12.45;7.35;;;7.60;99.90;;;;;;4972712;28;20043;-56
2021/12/13 00:20:45;;;;;;;18.33;8.80;;;7.60;99.90;;;;;;4966075;28;20030;-56
2021/12/13 00:23:25;;;;;;;11.68;7.90;;;7.60;99.90;;;;;;4965838;28;20034;-54
2021/12/13 00:25:54;;;;;;;14.05;9.23;;;7.60;99.90;;;;;;4966640;28;20515;-56
2021/12/13 00:28:23;;;;;;;14.05;8.73;;;7.60;99.90;;;;;;4969687;28;20031;-53
2021/12/13 00:31:25;;;;;;;14.02;8.05;;;7.60;99.90;;;;;;4969605;28;20023;-52
2021/12/13 00:34:09;;;;;;;9.57;6.88;;;7.60;99.90;;;;;;4969447;28;20495;-54
2021/12/13 00:36:57;;;;;;;14.70;8.05;;;7.60;99.90;;;;;;4969402;28;20023;-53
2021/12/13 00:39:28;;;;;;;11.02;7.75;;;7.60;99.90;;;;;;4970092;28;20054;-56
2021/12/13 00:41:55;;;;;;;11.25;8.15;;;7.60;99.90;;;;;;4969707;28;20073;-55
2021/12/13 00:44:29;;;;;;;10.20;7.65;;;7.60;99.90;;;;;;4951039;28;22288;-54
2021/12/13 00:46:57;;;;;;;10.90;7.40;;;7.70;99.90;;;;;;4969650;28;20392;-56
2021/12/13 00:49:27;;;;;;;12.70;7.78;;;7.60;99.90;;;;;;4949059;28;20030;-53
2021/12/13 00:51:56;;;;;;;9.43;7.28;;;7.70;99.90;;;;;;4961162;28;20096;-57
2021/12/13 00:54:32;;;;;;;11.77;6.68;;;7.70;99.90;;;;;;4962172;28;20031;-57
2021/12/13 00:57:00;;;;;;;9.40;6.82;;;7.60;99.90;;;;;;4959179;28;20052;-57
2021/12/13 00:59:40;;;;;;;11.15;6.03;;;7.60;99.90;;;;;;4969464;28;20038;-58
2021/12/13 01:02:17;;;;;;;9.48;5.35;;;7.60;99.90;;;;;;4969550;28;20019;-58
2021/12/13 01:05:05;;;;;;;7.88;6.00;;;7.60;99.90;;;;;;4964500;28;20030;-54
2021/12/13 01:07:33;;;;;;;7.72;5.72;;;7.60;99.90;;;;;;4961453;28;20030;-58
2021/12/13 01:10:26;;;;;;;8.32;5.80;;;7.60;99.90;;;;;;4960800;28;20031;-57
2021/12/13 01:12:53;;;;;;;11.32;6.45;;;7.60;99.90;;;;;;4967917;28;20489;-54
2021/12/13 01:15:33;;;;;;;8.82;7.25;;;7.60;99.90;;;;;;4958006;28;20035;-59
2021/12/13 01:21:12;;;;;;;12.57;7.30;;;7.60;99.90;;;;;;4958975;28;20073;-54
2021/12/13 01:23:43;;;;;;;13.63;8.60;;;7.60;99.90;;;;;;4961029;28;20037;-58
2021/12/13 01:26:36;;;;;;;12.85;7.68;;;7.60;99.90;;;;;;4960423;28;20584;-53
2021/12/13 01:29:10;;;;;;;11.10;7.18;;;7.60;99.90;;;;;;4963090;28;20090;-56
2021/12/13 01:32:02;;;;;;;11.43;6.65;;;7.60;99.90;;;;;;4965131;28;20035;-59
2021/12/13 01:34:30;;;;;;;10.73;6.30;;;7.60;99.90;;;;;;4960392;28;20031;-56
2021/12/13 01:37:09;;;;;;;11.55;7.32;;;7.60;99.90;;;;;;4962154;28;20444;-57
2021/12/13 01:39:40;;;;;;;11.63;7.40;;;7.60;99.90;;;;;;4962880;28;20409;-57
2021/12/13 01:42:11;;;;;;;11.50;7.03;;;7.60;99.90;;;;;;4972605;28;20439;-56
2021/12/13 01:44:42;;;;;;;10.57;6.38;;;7.60;99.90;;;;;;4951769;28;20035;-57
2021/12/13 01:47:12;;;;;;;12.98;6.60;;;7.60;99.90;;;;;;4966566;28;20045;-56
2021/12/13 01:49:48;;;;;;;8.35;6.28;;;7.60;99.90;;;;;;4961225;28;20023;-58
2021/12/13 01:52:18;;;;;;;11.75;7.55;;;7.60;99.90;;;;;;4962017;28;20066;-56
2021/12/13 01:54:45;;;;;;;11.32;7.63;;;7.60;99.90;;;;;;4959911;28;20042;-58
2021/12/13 01:59:56;;;;;;;13.00;7.72;;;7.60;99.90;;;;;;4969520;28;20026;-53
2021/12/13 02:02:42;;;;;;;11.73;7.38;;;7.60;99.90;;;;;;4968616;28;20062;-56
2021/12/13 02:05:28;;;;;;;13.38;8.00;;;7.60;99.90;;;;;;4963104;28;20649;-56
2021/12/13 02:08:00;;;;;;;13.23;6.97;;;7.60;99.90;;;;;;4965528;28;20876;-57
2021/12/13 02:10:32;;;;;;;13.00;7.72;;;7.60;99.90;;;;;;4965078;28;20081;-58
2021/12/13 02:13:02;;;;;;;13.15;6.65;;;7.60;99.90;;;;;;4966732;28;20496;-58
2021/12/13 02:18:21;;;;;;;19.98;8.65;;;7.60;99.90;;;;;;4966704;28;20026;-56
2021/12/13 02:21:03;;;;;;;26.38;11.48;;;7.60;99.90;;;;;;4962553;28;20039;-57
2021/12/13 02:23:31;;;;;;;18.63;9.15;;;7.60;99.90;;;;;;4959887;28;20484;-58
2021/12/13 02:25:57;;;;;;;12.80;7.50;;;7.60;99.90;;;;;;4959292;28;20043;-55
2021/12/13 02:28:30;;;;;;;23.67;11.18;;;7.60;99.90;;;;;;4966657;28;20118;-59
2021/12/13 02:31:21;;;;;;;20.30;9.30;;;7.60;99.90;;;;;;4969420;28;20063;-52
2021/12/13 02:33:51;;;;;;;11.50;7.40;;;7.60;99.90;;;;;;4964836;28;20035;-53
2021/12/13 02:36:23;;;;;;;13.20;8.25;;;7.60;99.90;;;;;;4963412;28;20515;-55
2021/12/13 02:38:53;;;;;;;8.30;6.63;;;7.60;99.90;;;;;;4961880;28;20412;-57
2021/12/13 02:41:22;;;;;;;11.45;6.78;;;7.60;99.90;;;;;;4966447;28;20404;-58
2021/12/13 02:43:51;;;;;;;10.95;6.78;;;7.60;99.90;;;;;;4968796;28;20089;-53
2021/12/13 02:46:17;;;;;;;8.07;5.75;;;7.60;99.90;;;;;;4938677;28;20061;-58
2021/12/13 02:48:55;;;;;;;10.50;7.13;;;7.60;99.90;;;;;;4946341;29;20106;-56
2021/12/13 02:51:27;;;;;;;10.60;6.43;;;7.60;99.90;;;;;;4944058;29;20572;-56
2021/12/13 02:54:06;;;;;;;10.18;6.03;;;7.50;99.90;;;;;;4940504;29;20042;-55
2021/12/13 02:56:40;;;;;;;11.07;6.13;;;7.50;99.90;;;;;;4948015;29;20043;-56
2021/12/13 02:59:07;;;;;;;9.68;6.78;;;7.50;99.90;;;;;;4948894;29;20043;-54
2021/12/13 03:01:40;;;;;;;13.13;7.28;;;7.50;99.90;;;;;;4949363;29;20392;-57
2021/12/13 03:04:11;;;;;;;14.40;8.75;;;7.50;99.90;;;;;;4945151;28;20039;-57
2021/12/13 03:06:47;;;;;;;11.75;7.45;;;7.50;99.90;;;;;;4941649;29;20027;-55
2021/12/13 03:09:18;;;;;;;14.00;8.63;;;7.50;99.90;;;;;;4941112;29;20031;-58
2021/12/13 03:11:45;;;;;;;12.23;7.38;;;7.50;99.90;;;;;;4947910;29;20030;-56
2021/12/13 03:14:40;;;;;;;14.40;6.97;;;7.50;99.90;;;;;;4949089;29;20027;-56
2021/12/13 03:17:15;;;;;;;13.10;7.00;;;7.50;99.90;;;;;;4949427;29;20066;-56
2021/12/13 03:19:41;;;;;;;9.40;6.70;;;7.50;99.90;;;;;;4930365;29;20033;-55
2021/12/13 03:22:43;;;;;;;8.98;6.95;;;7.50;99.90;;;;;;4927676;29;20230;-55
2021/12/13 03:25:27;;;;;;;8.90;5.90;;;7.50;99.90;;;;;;4949173;28;20098;-51
2021/12/13 03:28:11;;;;;;;13.27;7.95;;;7.50;99.90;;;;;;4947901;29;20031;-56
2021/12/13 03:30:46;;;;;;;;;;;7.50;99.90;;;;;;4953161;29;20031;-56
2021/12/13 03:33:14;;;;;;;14.50;7.18;;;7.50;99.90;;;;;;4951945;29;19965;-55
2021/12/13 03:35:45;;;;;;;15.32;8.82;;;7.50;99.90;;;;;;4943724;28;20039;-55
2021/12/13 03:38:16;;;;;;;10.80;7.28;;;7.50;99.90;;;;;;4947363;29;20581;-56
2021/12/13 03:40:43;;;;;;;12.45;7.35;;;7.50;99.90;;;;;;4949444;28;20043;-57
2021/12/13 03:43:16;;;;;;;15.98;7.90;;;7.50;99.90;;;;;;4945486;28;20492;-50
2021/12/13 03:45:53;;;;;;;17.05;9.35;;;7.50;99.90;;;;;;4935817;28;20745;-54
2021/12/13 03:48:22;;;;;;;20.83;9.18;;;7.50;99.90;;;;;;4948233;29;20031;-57
2021/12/13 03:50:53;;;;;;;13.32;6.90;;;7.50;99.90;;;;;;4944281;29;20042;-57
2021/12/13 03:53:22;;;;;;;15.45;8.02;;;7.50;99.90;;;;;;4945940;28;20058;-55
2021/12/13 03:55:51;;;;;;;16.45;8.75;;;7.50;99.90;;;;;;4947607;29;20047;-56
2021/12/13 03:58:20;;;;;;;15.43;7.90;;;7.50;99.90;;;;;;4951638;29;20062;-56
2021/12/13 04:00:55;;;;;;;15.05;8.90;;;7.50;99.90;;;;;;4952195;29;20023;-56
2021/12/13 04:03:22;;;;;;;16.55;8.88;;;7.50;99.90;;;;;;4950258;28;20643;-56
2021/12/13 04:05:48;;;;;;;19.25;9.10;;;7.50;99.90;;;;;;4949812;28;20115;-55
2021/12/13 04:08:17;;;;;;;15.82;8.60;;;7.50;99.90;;;;;;4954382;28;20421;-52
2021/12/13 04:10:52;;;;;;;9.32;6.70;;;7.50;99.90;;;;;;4953015;28;20031;-55
2021/12/13 04:13:22;;;;;;;6.35;4.97;;;7.50;99.90;;;;;;4951648;29;20063;-55
2021/12/13 04:21:21;;;;;;;4.88;4.28;;;7.50;99.90;;;;;;4944906;29;20035;-55
2021/12/13 04:23:52;;;;;;;6.07;4.38;;;7.50;99.90;;;;;;4943408;28;20293;-56
2021/12/13 04:26:18;;;;;;;6.88;4.53;;;7.50;99.90;;;;;;4938676;28;20027;-55
2021/12/13 04:28:48;;;;;;;8.98;4.15;;;7.50;99.90;;;;;;4947838;28;20118;-56
2021/12/13 04:31:25;;;;;;;5.57;4.25;;;7.40;99.90;;;;;;4950081;29;20126;-56
2021/12/13 04:33:55;;;;;;;5.07;3.97;;;7.40;99.90;;;;;;4944498;28;20038;-55
2021/12/13 04:36:34;;;;;;;7.60;4.57;;;7.50;99.90;;;;;;4943977;29;20130;-57
2021/12/13 04:39:03;;;;;;;5.95;4.28;;;7.40;99.90;;;;;;4943770;29;20401;-54
2021/12/13 04:41:39;;;;;;;5.55;4.32;;;7.40;99.90;;;;;;4949375;29;20031;-56
2021/12/13 04:44:08;;;;;;;8.45;4.10;;;7.40;99.90;;;;;;4951079;28;20031;-55
2021/12/13 04:46:35;;;;;;;6.47;4.30;;;7.40;99.90;;;;;;4945077;28;20503;-53
2021/12/13 04:49:07;;;;;;;4.95;3.78;;;7.40;99.90;;;;;;4962441;28;20912;-56
2021/12/13 04:52:01;;;;;;;4.88;3.70;;;7.40;99.90;;;;;;4958670;28;20492;-57
2021/12/13 04:54:31;;;;;;;4.60;3.88;;;7.40;99.90;;;;;;4960396;28;20046;-54
2021/12/13 04:56:58;;;;;;;5.35;4.07;;;7.40;99.90;;;;;;4969378;28;20022;-55
2021/12/13 04:59:26;;;;;;;5.50;4.35;;;7.40;99.90;;;;;;4969566;28;20034;-59
2021/12/13 05:01:54;;;;;;;7.07;3.70;;;7.40;99.90;;;;;;4969551;28;20030;-56
2021/12/13 05:04:23;;;;;;;5.35;4.00;;;7.50;99.90;;;;;;4967867;28;20015;-56
2021/12/13 05:06:50;;;;;;;5.82;4.38;;;7.40;99.90;;;;;;4967537;28;20046;-57
2021/12/13 05:09:18;;;;;;;6.45;4.32;;;7.40;99.90;;;;;;4961075;28;20057;-56
2021/12/13 05:11:56;;;;;;;6.28;4.88;;;7.40;99.90;;;;;;4968932;28;20055;-54
2021/12/13 05:14:36;;;;;;;8.20;5.43;;;7.40;99.90;;;;;;4968314;28;20038;-53
2021/12/13 05:17:16;;;;;;;10.70;5.43;;;7.40;99.90;;;;;;4967320;28;20042;-55
2021/12/13 05:20:05;;;;;;;6.82;5.50;;;7.40;99.90;;;;;;4964206;28;20394;-54
2021/12/13 05:22:31;;;;;;;10.63;6.20;;;7.40;99.90;;;;;;4952299;28;20129;-57
2021/12/13 05:25:01;;;;;;;12.65;7.07;;;7.40;99.90;;;;;;4963105;28;20130;-52
2021/12/13 05:27:34;;;;;;;16.52;9.68;;;7.40;99.90;;;;;;4968398;28;20031;-54
2021/12/13 05:30:09;;;;;;;29.40;21.42;;;7.40;99.90;;;;;;4968919;28;20089;-55
2021/12/13 05:32:38;;;;;;;20.73;15.30;;;7.40;99.90;;;;;;4967002;28;20035;-57
2021/12/13 05:35:27;;;;;;;16.73;11.10;;;7.40;99.90;;;;;;4957486;28;20114;-55
2021/12/13 05:37:56;;;;;;;11.02;9.02;;;7.40;99.90;;;;;;4960735;28;20047;-55
2021/12/13 05:40:41;;;;;;;12.05;7.80;;;7.40;99.90;;;;;;4963449;28;20544;-57
2021/12/13 05:43:27;;;;;;;21.67;11.73;;;7.40;99.90;;;;;;4968491;28;20161;-55
2021/12/13 05:46:09;;;;;;;27.27;13.00;;;7.40;99.90;;;;;;4952494;28;20047;-57
2021/12/13 05:48:34;;;;;;;22.95;13.93;;;7.40;99.90;;;;;;4967460;28;20119;-57
2021/12/13 05:51:06;;;;;;;25.15;14.93;;;7.30;99.90;;;;;;4967550;28;20102;-57
2021/12/13 05:53:36;;;;;;;27.55;14.68;;;7.40;99.90;;;;;;4963665;28;20030;-54
2021/12/13 05:56:12;;;;;;;30.20;17.02;;;7.40;99.90;;;;;;4965060;28;20062;-55
2021/12/13 05:58:37;;;;;;;30.83;16.08;;;7.40;99.90;;;;;;4962814;28;20042;-56
2021/12/13 06:01:11;;;;;;;36.15;17.13;;;7.40;99.90;;;;;;4965972;28;20114;-56
2021/12/13 06:03:41;;;;;;;44.92;20.38;;;7.40;99.90;;;;;;4965427;28;20100;-55
2021/12/13 06:06:14;;;;;;;47.45;20.33;;;7.40;99.90;;;;;;4961541;28;20023;-54
2021/12/13 06:08:45;;;;;;;48.03;21.08;;;7.40;99.90;;;;;;4963920;28;20106;-56
2021/12/13 06:11:15;;;;;;;45.67;20.83;;;7.40;99.90;;;;;;4965921;28;20126;-56
2021/12/13 06:13:43;;;;;;;32.40;16.30;;;7.40;99.90;;;;;;4968045;28;20488;-51
2021/12/13 06:16:34;;;;;;;27.23;11.60;;;7.40;99.90;;;;;;4967869;28;20030;-54
2021/12/13 06:19:03;;;;;;;18.63;10.20;;;7.40;99.90;;;;;;4965214;28;20127;-57
2021/12/13 06:21:40;;;;;;;17.35;9.18;;;7.40;99.90;;;;;;4963886;28;20026;-54
2021/12/13 06:24:08;;;;;;;19.60;10.95;;;7.40;99.90;;;;;;4962917;28;20019;-55
2021/12/13 06:26:35;;;;;;;16.08;9.93;;;7.40;99.90;;;;;;4965928;28;20037;-53
2021/12/13 06:29:04;;;;;;;13.02;8.82;;;7.40;99.90;;;;;;4968517;28;20050;-56
2021/12/13 06:31:40;;;;;;;16.55;8.93;;;7.40;99.90;;;;;;4968548;28;20034;-54
2021/12/13 06:34:09;;;;;;;19.52;9.45;;;7.40;99.90;;;;;;4963601;28;20030;-58
2021/12/13 06:36:44;;;;;;;11.95;6.97;;;7.40;99.90;;;;;;4962531;28;20027;-57
2021/12/13 06:39:19;;;;;;;15.45;8.00;;;7.40;99.90;;;;;;4965353;28;20041;-57
2021/12/13 06:41:58;;;;;;;10.50;6.72;;;7.40;99.90;;;;;;4965751;28;20453;-59
2021/12/13 06:44:29;;;;;;;14.90;6.80;;;7.40;99.90;;;;;;4967495;28;20105;-58
2021/12/13 06:47:03;;;;;;;8.43;6.28;;;7.40;99.90;;;;;;4951061;28;20042;-56
2021/12/13 06:49:38;;;;;;;7.78;4.95;;;7.40;99.90;;;;;;4964156;28;20030;-56
2021/12/13 06:52:29;;;;;;;7.65;5.80;;;7.40;99.90;;;;;;4963297;28;20030;-57
2021/12/13 06:54:55;;;;;;;7.28;5.45;;;7.40;99.90;;;;;;4964226;28;20023;-51
2021/12/13 06:57:39;;;;;;;9.32;6.78;;;7.40;99.90;;;;;;4969409;28;20023;-56
2021/12/13 07:00:19;;;;;;;9.70;6.40;;;7.40;99.90;;;;;;4972190;28;20408;-57
2021/12/13 07:02:56;;;;;;;10.35;6.68;;;7.40;99.90;;;;;;4971490;28;20031;-54
2021/12/13 07:05:32;;;;;;;12.77;6.40;;;7.40;99.90;;;;;;4963855;28;20066;-57
2021/12/13 07:08:01;;;;;;;10.23;6.70;;;7.30;99.90;;;;;;4963745;28;20027;-54
2021/12/13 07:10:36;;;;;;;10.15;6.55;;;7.40;99.90;;;;;;4965705;28;20054;-57
2021/12/13 07:13:10;;;;;;;11.95;7.05;;;7.40;99.90;;;;;;4971491;28;20142;-57
2021/12/13 07:15:58;;;;;;;12.15;7.63;;;7.40;99.90;;;;;;4972506;28;20070;-57
2021/12/13 07:18:30;;;;;;;23.52;12.02;;;7.30;99.90;;;;;;4969578;28;20023;-57
2021/12/13 07:21:10;;;;;;;13.13;8.60;;;7.30;99.90;;;;;;4964699;28;20031;-57
2021/12/13 07:24:16;;;;;;;13.27;7.88;;;7.30;99.90;;;;;;4964410;28;22150;-57
2021/12/13 07:26:57;;;;;;;19.75;11.77;;;7.30;99.90;;;;;;4934217;29;20509;-58
2021/12/13 07:29:26;;;;;;;18.25;8.85;;;7.30;99.90;;;;;;4934480;29;20027;-57
2021/12/13 07:32:13;;;;;;;11.55;7.88;;;7.30;99.90;;;;;;4959248;28;20026;-57
2021/12/13 07:34:50;;;;;;;14.57;8.77;;;7.30;99.90;;;;;;4967343;28;20113;-57
2021/12/13 07:37:16;;;;;;;11.68;7.25;;;7.30;99.90;;;;;;4964813;28;20051;-56
2021/12/13 07:39:43;;;;;;;14.35;7.65;;;7.30;99.90;;;;;;4963623;28;20034;-55
2021/12/13 07:42:13;;;;;;;11.23;7.50;;;7.30;99.90;;;;;;4970238;28;20066;-58
2021/12/13 07:44:47;;;;;;;12.45;6.88;;;7.30;99.90;;;;;;4968267;28;20027;-58
2021/12/13 07:47:20;;;;;;;9.38;7.03;;;7.30;99.90;;;;;;4941035;28;20055;-57
2021/12/13 07:49:52;;;;;;;13.05;6.72;;;7.40;99.90;;;;;;4945612;29;20503;-58
2021/12/13 07:52:31;;;;;;;9.13;6.35;;;7.30;99.90;;;;;;4943310;29;20043;-56
2021/12/13 07:55:19;;;;;;;10.75;6.43;;;7.30;99.90;;;;;;4944434;28;20043;-56
2021/12/13 07:57:46;;;;;;;11.02;6.90;;;7.30;99.90;;;;;;4951102;29;20039;-56
2021/12/13 08:00:20;;;;;;;11.38;6.88;;;7.40;99.90;;;;;;4951348;28;20062;-58
2021/12/13 08:02:54;;;;;;;;;;;7.40;99.90;;;;;;4950217;28;20043;-54
2021/12/13 08:05:24;;;;;;;16.77;6.95;;;7.40;99.90;;;;;;4947121;28;19914;-56
2021/12/13 08:07:55;;;;;;;9.70;6.30;;;7.40;99.90;;;;;;4944301;29;20114;-56
2021/12/13 08:10:30;;;;;;;13.50;6.85;;;7.40;99.90;;;;;;4946914;29;20020;-57
2021/12/13 08:13:06;;;;;;;13.55;6.88;;;7.40;99.90;;;;;;4948034;29;20085;-58
2021/12/13 08:16:06;;;;;;;10.70;6.10;;;7.40;99.90;;;;;;4951248;28;20489;-57
2021/12/13 08:18:39;;;;;;;11.00;6.97;;;7.40;99.90;;;;;;4948591;29;20130;-55
2021/12/13 08:21:27;;;;;;;11.13;7.95;;;7.50;99.90;;;;;;4945431;29;20042;-56
2021/12/13 08:23:59;;;;;;;9.05;6.43;;;7.50;99.90;;;;;;4942848;29;20102;-56
2021/12/13 08:26:35;;;;;;;10.07;7.10;;;7.50;99.90;;;;;;4948179;28;20019;-56
2021/12/13 08:29:08;;;;;;;11.20;7.47;;;7.50;99.90;;;;;;4950638;29;20031;-58
2021/12/13 08:31:39;;;;;;;12.63;7.47;;;7.50;99.90;;;;;;4951599;29;20054;-57
2021/12/13 08:34:14;;;;;;;10.60;7.10;;;7.50;99.90;;;;;;4947264;28;20035;-58
2021/12/13 08:36:46;;;;;;;11.98;7.25;;;7.50;99.90;;;;;;4947507;29;20043;-56
2021/12/13 08:39:28;;;;;;;14.85;6.85;;;7.50;99.90;;;;;;4943298;29;20034;-58
2021/12/13 08:42:09;;;;;;;13.07;8.57;;;7.60;99.90;;;;;;4948930;29;20106;-58
2021/12/13 08:44:40;;;;;;;10.75;7.47;;;7.60;99.90;;;;;;4949581;28;20421;-58
2021/12/13 08:47:16;;;;;;;13.50;8.10;;;7.60;99.90;;;;;;4920425;29;20051;-57
2021/12/13 08:49:58;;;;;;;12.18;8.15;;;7.60;99.90;;;;;;4944396;28;20031;-58
2021/12/13 08:52:32;;;;;;;14.07;8.27;;;7.70;99.90;;;;;;4942508;29;20696;-58
2021/12/13 08:55:06;;;;;;;14.65;10.10;;;7.70;99.90;;;;;;4943284;28;20123;-58
2021/12/13 08:57:49;;;;;;;11.77;9.00;;;7.70;99.90;;;;;;4949420;29;20023;-57
2021/12/13 09:00:21;;;;;;;16.38;8.50;;;7.80;99.90;;;;;;4950463;28;20039;-56
2021/12/13 09:02:52;;;;;;;15.15;8.15;;;7.80;99.90;;;;;;4948651;29;20031;-57
2021/12/13 09:05:25;;;;;;;12.95;8.90;;;7.90;99.90;;;;;;4941727;28;20031;-56
2021/12/13 09:08:04;;;;;;;14.73;10.40;;;7.90;99.90;;;;;;4945483;29;20031;-53
2021/12/13 09:10:56;;;;;;;19.27;11.82;;;8.00;99.90;;;;;;4943110;28;20472;-57
2021/12/13 09:14:13;;;;;;;17.67;10.43;;;8.00;99.90;;;;;;4944533;28;20039;-56
2021/12/13 09:17:06;;;;;;;11.25;6.90;;;8.00;99.90;;;;;;4925516;28;20042;-57
2021/12/13 09:19:40;;;;;;;9.48;6.70;;;8.10;99.90;;;;;;4944648;28;20035;-55
2021/12/13 09:22:23;;;;;;;11.43;6.35;;;8.20;99.90;;;;;;4945963;28;20745;-57
2021/12/13 09:25:12;;;;;;;9.65;6.30;;;8.20;99.90;;;;;;4948696;28;20576;-58
2021/12/13 09:27:41;;;;;;;10.15;6.00;;;8.30;99.90;;;;;;4947578;28;20074;-56
2021/12/13 09:30:17;;;;;;;9.68;7.20;;;8.30;99.90;;;;;;4950415;29;20027;-57
2021/12/13 09:32:49;;;;;;;11.93;6.95;;;8.30;99.90;;;;;;4947921;29;20027;-53
2021/12/13 09:35:26;;;;;;;9.00;6.70;;;8.40;99.90;;;;;;4941742;29;20041;-57
2021/12/13 09:38:00;;;;;;;7.28;5.35;;;8.50;99.90;;;;;;4942331;29;20038;-58
2021/12/13 09:40:33;;;;;;;10.48;5.78;;;8.60;99.90;;;;;;4944212;28;20145;-53
2021/12/13 09:42:59;;;;;;;8.95;6.68;;;8.60;99.90;;;;;;4948482;28;20039;-57
2021/12/13 09:45:39;;;;;;;10.82;6.70;;;8.70;99.90;;;;;;4951897;28;20370;-56
2021/12/13 09:48:37;;;;;;;13.02;8.63;;;8.70;99.90;;;;;;4931675;28;20043;-56
2021/12/13 09:51:17;;;;;;;10.27;7.15;;;8.70;99.90;;;;;;4927041;29;20134;-58
2021/12/13 09:53:53;;;;;;;9.93;6.35;;;8.80;99.90;;;;;;4941818;28;20038;-58
2021/12/13 09:56:21;;;;;;;10.80;7.07;;;8.90;99.90;;;;;;4946457;29;20039;-57
2021/12/13 09:58:54;;;;;;;8.85;6.45;;;9.00;99.90;;;;;;4950034;29;20027;-56
2021/12/13 10:01:33;;;;;;;8.43;6.35;;;9.10;99.90;;;;;;4944779;28;20042;-58
2021/12/13 10:04:16;;;;;;;10.05;6.28;;;9.10;99.90;;;;;;4944602;29;20046;-56
2021/12/13 10:06:51;;;;;;;13.82;6.20;;;9.10;99.90;;;;;;4942533;29;20080;-55
2021/12/13 10:09:17;;;;;;;7.65;5.93;;;9.10;99.90;;;;;;4941621;28;20148;-57
2021/12/13 10:11:52;;;;;;;9.82;7.78;;;9.20;99.90;;;;;;4947904;29;20118;-53
2021/12/13 10:14:21;;;;;;;14.25;10.98;;;9.20;99.90;;;;;;4947036;28;20197;-56
2021/12/13 10:16:49;;;;;;;10.63;7.32;;;9.20;99.90;;;;;;4950140;28;20031;-56
2021/12/13 10:19:21;;;;;;;6.85;4.70;;;9.20;99.90;;;;;;4943292;29;20074;-57
2021/12/13 10:21:48;;;;;;;6.65;5.15;;;9.30;99.90;;;;;;4941485;28;20379;-55
2021/12/13 10:24:13;;;;;;;6.10;4.25;;;9.30;99.90;;;;;;4947950;28;20053;-56
2021/12/13 10:26:42;;;;;;;10.15;6.10;;;9.30;99.90;;;;;;4952091;28;20505;-52
2021/12/13 10:29:11;;;;;;;9.85;7.05;;;9.30;99.90;;;;;;4951476;29;20078;-56
2021/12/13 10:32:12;;;;;;;17.75;13.68;;;9.40;99.90;;;;;;4952209;29;20032;-56
2021/12/13 10:34:43;;;;;;;10.25;6.97;;;9.50;99.90;;;;;;4944891;29;20038;-56
2021/12/13 10:37:22;;;;;;;12.40;4.72;;;9.50;99.90;;;;;;4947881;29;20090;-56
2021/12/13 10:39:55;;;;;;;6.78;4.90;;;9.50;99.90;;;;;;4949476;28;20043;-55
2021/12/13 10:42:32;;;;;;;6.37;4.27;;;9.60;99.90;;;;;;4951420;28;20374;-56
2021/12/13 10:45:01;;;;;;;4.50;3.80;;;9.70;99.90;;;;;;4952902;28;20031;-49
2021/12/13 10:47:34;;;;;;;5.00;3.90;;;9.80;99.90;;;;;;4926568;28;20593;-57
2021/12/13 10:50:00;;;;;;;6.72;3.63;;;9.90;99.90;;;;;;4949478;28;20400;-57
2021/12/13 10:52:33;;;;;;;5.07;3.42;;;10.10;99.90;;;;;;4947635;28;20031;-56
2021/12/13 10:55:05;;;;;;;7.47;3.92;;;10.20;99.90;;;;;;4946293;29;20035;-57
2021/12/13 10:57:39;;;;;;;7.45;4.13;;;10.20;99.90;;;;;;4951987;29;20425;-54
2021/12/13 11:00:15;;;;;;;5.90;3.92;;;10.10;99.90;;;;;;4952211;28;20082;-54
2021/12/13 11:02:41;;;;;;;5.13;3.58;;;10.20;99.90;;;;;;4951512;29;20490;-56
2021/12/13 11:05:12;;;;;;;6.85;3.90;;;10.30;99.90;;;;;;4941413;28;20078;-56
2021/12/13 11:07:39;;;;;;;15.70;10.75;;;10.30;99.90;;;;;;4946295;28;20050;-56
2021/12/13 11:10:10;;;;;;;6.18;4.22;;;10.20;99.90;;;;;;4946260;29;20031;-57
2021/12/13 11:12:42;;;;;;;5.43;3.67;;;10.10;99.90;;;;;;4951508;28;20115;-56
2021/12/13 11:15:18;;;;;;;6.25;4.80;;;10.10;99.90;;;;;;4953009;28;20031;-56
2021/12/13 11:17:46;;;;;;;6.45;4.10;;;10.10;99.90;;;;;;4950338;29;20028;-56
2021/12/13 11:20:44;;;;;;;6.47;4.88;;;10.20;99.90;;;;;;4945572;29;20038;-57
2021/12/13 11:23:12;;;;;;;21.90;12.57;;;10.10;99.90;;;;;;4936084;29;20130;-49
2021/12/13 11:25:46;;;;;;;8.60;5.93;;;10.10;99.90;;;;;;4951301;28;20046;-54
2021/12/13 11:28:13;;;;;;;6.40;4.63;;;10.30;99.90;;;;;;4952893;28;20038;-56
2021/12/13 11:30:42;;;;;;;5.45;3.75;;;10.40;99.90;;;;;;4950405;29;20090;-56
2021/12/13 11:33:09;;;;;;;6.47;3.40;;;10.50;99.90;;;;;;4950899;28;20114;-56
2021/12/13 11:36:06;;;;;;;7.20;3.42;;;10.60;99.90;;;;;;4946876;28;20523;-54
2021/12/13 11:38:56;;;;;;;6.00;3.78;;;10.50;99.90;;;;;;4944541;29;20205;-55
2021/12/13 11:41:59;;;;;;;5.68;4.35;;;10.40;99.90;;;;;;4947296;29;20114;-57
2021/12/13 11:44:49;;;;;;;12.80;6.40;;;10.50;99.90;;;;;;4950354;28;20027;-56
2021/12/13 11:47:30;;;;;;;8.18;6.05;;;10.30;99.90;;;;;;4933167;28;20044;-58
2021/12/13 11:50:27;;;;;;;36.20;21.33;;;10.30;99.90;;;;;;4948376;29;20035;-57
2021/12/13 11:53:11;;;;;;;7.53;5.47;;;10.20;99.90;;;;;;4943953;29;20031;-57
2021/12/13 11:55:55;;;;;;;;;;;10.20;99.90;;;;;;4945528;29;20038;-57
2021/12/13 11:58:42;;;;;;;4.28;3.28;;;10.20;99.90;;;;;;4951643;29;20009;-57
2021/12/13 12:01:30;;;;;;;6.13;5.05;;;10.20;99.90;;;;;;4949710;28;20059;-57
2021/12/13 12:04:07;;;;;;;11.95;7.65;;;10.20;99.90;;;;;;4945353;28;20098;-56
2021/12/13 12:07:17;;;;;;;16.58;9.32;;;10.10;99.90;;;;;;4944819;29;20024;-56
2021/12/13 12:10:01;;;;;;;8.10;5.75;;;10.10;99.90;;;;;;4943828;28;20757;-57
2021/12/13 12:12:49;;;;;;;11.10;5.55;;;10.10;99.90;;;;;;4953347;28;20027;-57
2021/12/13 12:15:15;;;;;;;9.15;3.28;;;10.10;99.90;;;;;;4953820;28;20421;-60
2021/12/13 12:17:41;;;;;;;7.00;4.95;;;10.10;99.90;;;;;;4952891;28;20027;-53
2021/12/13 12:20:13;;;;;;;10.18;4.40;;;10.10;99.90;;;;;;4944648;28;20105;-56
2021/12/13 12:22:54;;;;;;;23.92;11.80;;;10.10;99.90;;;;;;4942801;29;20043;-56
2021/12/13 12:25:23;;;;;;;31.48;17.83;;;10.00;99.90;;;;;;4947695;29;20408;-56
2021/12/13 12:27:51;;;;;;;24.88;12.85;;;10.00;99.90;;;;;;4949777;28;20131;-55
2021/12/13 12:30:21;;;;;;;98.88;42.55;;;10.00;99.90;;;;;;4951263;28;20118;-57
2021/12/13 12:32:57;;;;;;;13.68;6.30;;;10.00;99.90;;;;;;4951175;28;20039;-50
2021/12/13 12:35:38;;;;;;;15.20;6.65;;;10.00;99.90;;;;;;4944466;28;20433;-57
2021/12/13 12:38:24;;;;;;;25.88;15.88;;;10.00;99.90;;;;;;4948156;29;20053;-56
2021/12/13 12:41:05;;;;;;;13.55;9.07;;;10.00;99.90;;;;;;4942478;29;20023;-55
2021/12/13 12:43:40;;;;;;;13.32;6.90;;;10.10;99.90;;;;;;4947938;28;20026;-56
2021/12/13 12:46:13;;;;;;;35.45;16.45;;;10.10;99.90;;;;;;4950112;29;20695;-56
2021/12/13 12:48:46;;;;;;;14.95;6.65;;;10.10;99.90;;;;;;4931181;28;20125;-56
2021/12/13 12:51:17;;;;;;;12.93;6.13;;;10.10;99.90;;;;;;4942658;29;20047;-56
2021/12/13 12:54:04;;;;;;;10.35;6.68;;;10.10;99.90;;;;;;4947501;28;20512;-53
2021/12/13 12:56:51;;;;;;;6.78;4.40;;;10.10;99.90;;;;;;4948465;29;20173;-56
2021/12/13 12:59:22;;;;;;;6.38;4.15;;;10.10;99.90;;;;;;4949441;29;20078;-58
2021/12/13 13:01:53;;;;;;;6.63;3.33;;;10.00;99.90;;;;;;4950512;29;20031;-57
2021/12/13 13:04:19;;;;;;;4.88;2.97;;;10.00;99.90;;;;;;4947456;28;20028;-57
2021/12/13 13:07:06;;;;;;;6.38;4.35;;;10.00;99.90;;;;;;4942955;28;20037;-56
2021/12/13 13:09:41;;;;;;;9.07;5.15;;;10.00;99.90;;;;;;4943451;29;20114;-56
2021/12/13 13:12:09;;;;;;;16.23;6.00;;;10.00;99.90;;;;;;4950427;28;20039;-55
2021/12/13 13:14:44;;;;;;;24.42;12.70;;;10.00;99.90;;;;;;4949494;28;20027;-56
2021/12/13 13:17:09;;;;;;;20.83;11.82;;;9.90;99.90;;;;;;4949897;29;20027;-55
2021/12/13 13:19:36;;;;;;;11.88;6.25;;;9.90;99.90;;;;;;4944670;28;20082;-56
2021/12/13 13:22:07;;;;;;;17.60;8.77;;;9.90;99.90;;;;;;4942149;28;22351;-57
2021/12/13 13:24:42;;;;;;;20.63;9.80;;;9.90;99.90;;;;;;4942420;28;20039;-57
2021/12/13 13:27:09;;;;;;;14.23;7.75;;;9.80;99.90;;;;;;4949152;28;20027;-53
2021/12/13 13:29:35;;;;;;;21.35;9.23;;;9.80;99.90;;;;;;4949394;28;20023;-55
2021/12/13 13:32:02;;;;;;;13.80;7.72;;;9.80;99.90;;;;;;4949131;28;20019;-56
2021/12/13 13:34:35;;;;;;;14.70;6.80;;;9.80;99.90;;;;;;4939731;28;20027;-56
2021/12/13 13:37:11;;;;;;;15.60;7.50;;;9.80;99.90;;;;;;4940422;28;20090;-57
2021/12/13 13:39:42;;;;;;;16.83;6.82;;;9.80;99.90;;;;;;4944740;28;20278;-57
2021/12/13 13:42:13;;;;;;;12.90;6.88;;;9.80;99.90;;;;;;4949119;28;20175;-57
2021/12/13 13:44:43;;;;;;;14.05;7.38;;;9.70;99.90;;;;;;4947681;29;20032;-56